Santa Susanna, Spain

5:40 PM CEST on April 27, 2017 (GMT +0200)
Carrer de la Riera | | Change Station

Elev 62 ft 41.63 °N, 2.69 °E | Updated 8 minutes ago

Mostly Cloudy
Mostly Cloudy
54.5 °F
Feels Like 54.5 °F
N
1.2
Wind Variable Wind from SW
Gusts 3.1 mph

Today
High -- | Low -- °F
--% Chance of Precip.
Yesterday
High -- | Low -- °F
Precip. -- in
Pressure 29.95 in
Visibility 6.2 miles
Clouds Few 2400 ft
Mostly Cloudy 6500 ft
Dew Point 43 °F
Humidity 65%
Rainfall Not available.
Snow Depth Not available.
6:51 AM 8:42 PM
New Moon, 2% visible
METAR LEGE 271530Z 22003KT 190V260 9999 FEW024 BKN065 09/06 Q1014
Pressure 29.95 in
Visibility 6.2 miles
Clouds Few 2400 ft
Mostly Cloudy 6500 ft
Dew Point 43 °F
Humidity 65%
Rainfall Not available.
Snow Depth Not available.
6:51 AM 8:42 PM
New Moon, 2% visible
METAR LEGE 271530Z 22003KT 190V260 9999 FEW024 BKN065 09/06 Q1014

Get Severe Weather Alerts

Thanks for signing up!

Be on the lookout for a verification email in your inbox.

You'll start receiving the daily forecast at 8 AM.

×

10-Day Weather Forecast

×

Almanac

Astronomy

Apr. 27, 2017 Rise Set
Actual Time
Civil Twilight
Nautical Twilight
Astronomical Twilight
Moon
Length of Visible Light
Length of Day
Tomorrow will be .
, % of the Moon is Illuminated

Today's Extremes

Country Highs Country Lows

Community

WunderPhotos

WunderBlog® & News

Nearby

Air Quality

  Air Quality AQ Index Pollutant
Not available.

Snow Depth

Station Depth Elevation

Earthquake Activity

City Distance Mag. Time & Date
Minimum magnitude displayed is 2.5.

Coastal Water Temperatures

Place Temperature

Stations

Nearby Weather Stations

Station Location Temp. Windchill Dew Point Humidity Wind Precip. Elev Updated Type